Accueil
METAR-TAF:

METAR-TAF

Aéroports :

Cologne, Allemagne

Aéroport Cologne/Bonn

latitude: 50-52N, longitude: 007-10E, altitude: 91 m

Observation

Le bulletin a été fait il y a 18 minutes, à 18:20 UTC
Vent 2 kt de direction variable
Température 13°C
Humidité 100%
Pression 1019 hPa
Visibilité 10 km ou plus
Quelques nuages à une hauteur de 3400 ft
Brouillard mince

METAR: EDDK 171820Z VRB02KT 9999 MIFG FEW034 13/13 Q1019 NOSIG

Heure: 20:38 (18:38 UTC)

Prévision

Le bulletin a été fait il y a 1 heure et 38 minutes, à 17:00 UTC
Prévision valable du 17 à 18 UTC au 18 à 24 UTC
Vent 3 kt de direction variable
Visibilité 10 km ou plus
pas de nuages en-dessous de 1500 mètres et pas de cumulonimbus.
Evoluant progressivement
du 18 à 02 UTC au 18 à 05 UTC
Vent 7 kt de sud-est

TAF: EDDK 171700Z 1718/1824 VRB03KT CAVOK BECMG 1802/1805 13007KT

Observations et prévisions météorologiques de plus de 4000 aéroports (messages METAR et TAF).

Les stations disponibles sont représentées par des disques jaunes et rouges sur la carte.

Passer la souris dessus pour voir le nom de la station.

Cliquer dessus pour voir les observations et prévisions météorologiques.

Pour changer de carte: cliquez sur les boutons verts avec une croix noire pour zoomer, sur le bouton vert avec un tiret pour effectuer un zoom arrière, ou sur les flèches vertes pour les cartes adjacentes.


METAR-TAF: